createdAt,value
2022-11-04T00:00:48.999Z,4.72
2022-11-04T00:03:15.965Z,5.67
2022-11-04T00:06:01.972Z,4.26
2022-11-04T00:08:28.962Z,4.54
2022-11-04T00:11:15.309Z,5.37
2022-11-04T00:13:42.610Z,5.59
2022-11-04T00:16:28.880Z,3.55
2022-11-04T00:18:56.203Z,3.68
2022-11-04T00:21:42.340Z,5.70
2022-11-04T00:24:37.694Z,4.37
2022-11-04T00:27:23.449Z,5.26
2022-11-04T00:29:50.356Z,3.94
2022-11-04T00:32:35.703Z,3.55
2022-11-04T00:35:02.761Z,4.05
2022-11-04T00:37:29.682Z,4.98
2022-11-04T00:39:56.619Z,-0.52
2022-11-04T00:42:23.571Z,2.84
2022-11-04T00:44:50.459Z,4.39
2022-11-04T00:47:17.422Z,0.21
2022-11-04T00:49:44.311Z,3.79
2022-11-04T00:52:11.231Z,3.72
2022-11-04T00:54:38.164Z,0.99
2022-11-04T00:57:05.340Z,2.67
2022-11-04T00:59:32.185Z,4.59
2022-11-04T01:01:59.465Z,5.72
2022-11-04T01:04:26.548Z,5.43
2022-11-04T01:06:53.535Z,5.42
2022-11-04T01:09:20.596Z,5.71
2022-11-04T01:11:47.557Z,5.60
2022-11-04T01:14:15.468Z,4.13
2022-11-04T01:16:42.759Z,3.28
2022-11-04T01:19:10.375Z,1.55
2022-11-04T01:21:37.338Z,2.97
2022-11-04T01:24:04.624Z,4.43
2022-11-04T01:26:32.075Z,4.25
2022-11-04T01:29:00.435Z,4.72
2022-11-04T01:31:29.849Z,5.61
2022-11-04T01:33:58.303Z,5.67
2022-11-04T01:36:27.225Z,5.47
2022-11-04T01:38:57.223Z,4.46
2022-11-04T01:41:27.690Z,4.43
2022-11-04T01:44:03.507Z,5.70
2022-11-04T01:46:47.749Z,5.53
2022-11-04T01:49:29.474Z,4.92
2022-11-04T01:52:14.552Z,4.49
2022-11-04T01:54:43.522Z,5.84
2022-11-04T01:57:15.199Z,4.70
2022-11-04T01:59:42.833Z,5.49
2022-11-04T02:02:10.007Z,3.97
2022-11-04T02:04:39.441Z,5.57
2022-11-04T02:07:09.709Z,-0.48
2022-11-04T02:09:38.728Z,4.83
2022-11-04T02:12:24.938Z,4.64
2022-11-04T02:14:53.611Z,5.25
2022-11-04T02:17:20.522Z,5.97
2022-11-04T02:20:06.015Z,5.88
2022-11-04T02:23:06.059Z,5.85
2022-11-04T02:25:39.269Z,6.00
2022-11-04T02:28:39.486Z,6.02
2022-11-04T02:31:31.486Z,5.89
2022-11-04T02:34:10.985Z,2.68
2022-11-04T02:36:51.910Z,5.93
2022-11-04T02:39:21.770Z,6.10
2022-11-04T02:42:03.037Z,6.21
2022-11-04T02:44:41.129Z,4.74
2022-11-04T02:47:14.935Z,3.57
2022-11-04T02:49:47.279Z,3.69
2022-11-04T02:52:31.619Z,6.32
2022-11-04T02:55:06.869Z,5.26
2022-11-04T02:57:37.862Z,1.46
2022-11-04T03:00:11.098Z,5.98
2022-11-04T03:02:46.131Z,3.62
2022-11-04T03:05:17.548Z,5.81
2022-11-04T03:07:47.181Z,6.15
2022-11-04T03:10:24.619Z,5.65
2022-11-04T03:13:11.953Z,5.85
2022-11-04T03:15:42.690Z,6.58
2022-11-04T03:18:34.483Z,6.63
2022-11-04T03:21:05.485Z,6.63
2022-11-04T03:23:33.149Z,6.53
2022-11-04T03:26:19.200Z,-0.93
2022-11-04T03:29:07.689Z,6.68
2022-11-04T03:31:55.532Z,6.31
2022-11-04T03:34:22.569Z,5.01
2022-11-04T03:36:49.529Z,4.45
2022-11-04T03:39:16.783Z,1.92
2022-11-04T03:41:55.899Z,-1.86
2022-11-04T03:44:24.031Z,-1.49
2022-11-04T03:46:54.475Z,4.38
2022-11-04T03:49:22.958Z,6.31
2022-11-04T03:51:51.634Z,6.74
2022-11-04T03:54:19.601Z,4.68
2022-11-04T03:56:49.560Z,6.73
2022-11-04T03:59:31.466Z,6.73
2022-11-04T04:02:14.181Z,5.78
2022-11-04T04:04:49.541Z,5.15
2022-11-04T04:07:44.749Z,6.45
2022-11-04T04:11:04.131Z,6.49
2022-11-04T04:13:37.241Z,6.81
2022-11-04T04:16:30.143Z,6.66
2022-11-04T04:19:14.679Z,3.89
2022-11-04T04:21:51.714Z,6.89
2022-11-04T04:24:40.772Z,5.10
2022-11-04T04:27:26.479Z,4.73
2022-11-04T04:29:54.122Z,6.10
2022-11-04T04:32:24.316Z,6.94
2022-11-04T04:34:51.295Z,4.68
2022-11-04T04:37:24.477Z,7.00
2022-11-04T04:40:12.041Z,6.98
2022-11-04T04:43:17.980Z,7.04
2022-11-04T04:45:51.439Z,5.94
2022-11-04T04:48:18.715Z,7.07
2022-11-04T04:50:49.310Z,7.12
2022-11-04T04:53:16.353Z,7.17
2022-11-04T04:55:43.494Z,6.37
2022-11-04T04:58:10.598Z,1.21
2022-11-04T05:00:37.529Z,3.10
2022-11-04T05:03:04.609Z,5.75
2022-11-04T05:05:31.647Z,6.34
2022-11-04T05:08:09.065Z,7.17
2022-11-04T05:10:36.315Z,4.43
2022-11-04T05:13:21.735Z,7.00
2022-11-04T05:15:48.749Z,6.02
2022-11-04T05:18:15.706Z,5.21
2022-11-04T05:20:42.700Z,4.80
2022-11-04T05:23:12.359Z,-0.01
2022-11-04T05:25:40.467Z,7.18
2022-11-04T05:28:08.927Z,4.24
2022-11-04T05:30:37.022Z,7.21
2022-11-04T05:33:05.171Z,6.77
2022-11-04T05:35:33.654Z,5.95
2022-11-04T05:38:00.766Z,5.81
2022-11-04T05:40:27.776Z,4.02
2022-11-04T05:42:57.489Z,-1.22
2022-11-04T05:45:24.462Z,5.78
2022-11-04T05:47:59.123Z,6.52
2022-11-04T05:50:26.695Z,-1.16
2022-11-04T05:52:53.719Z,6.07
2022-11-04T05:55:21.091Z,6.82
2022-11-04T05:57:48.085Z,4.74
2022-11-04T06:00:15.466Z,5.34
2022-11-04T06:02:42.512Z,6.33
2022-11-04T06:05:10.493Z,6.00
2022-11-04T06:07:37.673Z,6.09
2022-11-04T06:10:05.044Z,7.28
2022-11-04T06:12:32.082Z,6.04
2022-11-04T06:14:58.986Z,2.33
2022-11-04T06:17:25.941Z,4.82
2022-11-04T06:19:52.960Z,6.12
2022-11-04T06:22:20.482Z,6.29
2022-11-04T06:24:47.589Z,4.86
2022-11-04T06:27:14.685Z,4.34
2022-11-04T06:29:42.173Z,5.63
2022-11-04T06:32:14.945Z,7.39
2022-11-04T06:34:42.162Z,7.56
2022-11-04T06:37:10.346Z,7.60
2022-11-04T06:39:37.765Z,7.61
2022-11-04T06:42:06.043Z,7.24
2022-11-04T06:44:34.793Z,4.49
2022-11-04T06:47:02.223Z,5.26
2022-11-04T06:49:29.183Z,-0.54
2022-11-04T06:51:56.251Z,7.01
2022-11-04T06:54:23.205Z,4.63
2022-11-04T06:56:50.209Z,7.75
2022-11-04T06:59:20.118Z,7.74
2022-11-04T07:01:47.888Z,7.82
2022-11-04T07:04:14.955Z,4.26
2022-11-04T07:06:44.420Z,7.97
2022-11-04T07:09:14.548Z,7.78
2022-11-04T07:11:43.635Z,7.97
2022-11-04T07:14:11.548Z,6.63
2022-11-04T07:16:38.886Z,7.68
2022-11-04T07:19:06.610Z,8.28
2022-11-04T07:21:33.550Z,8.34
2022-11-04T07:24:01.567Z,8.10
2022-11-04T07:26:28.575Z,7.56
2022-11-04T07:28:55.546Z,6.21
2022-11-04T07:31:22.662Z,7.57
2022-11-04T07:33:51.704Z,6.97
2022-11-04T07:36:19.693Z,8.49
2022-11-04T07:38:47.444Z,8.52
2022-11-04T07:41:15.304Z,8.28
2022-11-04T07:43:42.504Z,7.62
2022-11-04T07:46:13.137Z,6.71
2022-11-04T07:48:40.405Z,7.23
2022-11-04T07:51:11.262Z,1.89
2022-11-04T07:53:38.204Z,8.34
2022-11-04T07:56:07.522Z,8.55
2022-11-04T07:58:35.369Z,8.63
2022-11-04T08:01:05.971Z,8.66
2022-11-04T08:03:34.472Z,8.69
2022-11-04T08:06:03.885Z,8.71
2022-11-04T08:08:31.364Z,8.50
2022-11-04T08:11:04.553Z,8.21
2022-11-04T08:13:33.174Z,8.74
2022-11-04T08:16:10.296Z,7.24
2022-11-04T08:18:37.244Z,7.02
2022-11-04T08:21:05.177Z,8.61
2022-11-04T08:23:33.314Z,8.69
2022-11-04T08:26:00.585Z,8.73
2022-11-04T08:28:29.886Z,8.79
2022-11-04T08:31:14.162Z,8.84
2022-11-04T08:33:42.453Z,7.78
2022-11-04T08:36:16.067Z,7.53
2022-11-04T08:38:43.312Z,8.74
2022-11-04T08:41:11.484Z,8.78
2022-11-04T08:43:38.757Z,4.48
2022-11-04T08:46:08.687Z,8.76
2022-11-04T08:48:37.162Z,8.85
2022-11-04T08:51:06.247Z,8.80
2022-11-04T08:53:33.190Z,8.19
2022-11-04T08:56:00.142Z,8.62
2022-11-04T08:58:27.142Z,4.03
2022-11-04T09:00:54.105Z,7.08
2022-11-04T09:03:21.413Z,7.25
2022-11-04T09:05:49.447Z,8.08
2022-11-04T09:08:18.334Z,9.18
2022-11-04T09:10:47.129Z,7.92
2022-11-04T09:13:16.065Z,8.41
2022-11-04T09:15:44.255Z,9.32
2022-11-04T09:18:11.470Z,9.16
2022-11-04T09:20:42.517Z,9.11
2022-11-04T09:23:10.187Z,7.94
2022-11-04T09:25:37.626Z,7.16
2022-11-04T09:28:05.013Z,8.43
2022-11-04T09:30:32.438Z,9.68
2022-11-04T09:32:59.673Z,8.00
2022-11-04T09:35:27.863Z,9.54
2022-11-04T09:37:55.304Z,7.37
2022-11-04T09:40:25.593Z,9.80
2022-11-04T09:43:23.535Z,9.75
2022-11-04T09:45:50.719Z,9.41
2022-11-04T09:48:38.428Z,9.77
2022-11-04T09:51:12.906Z,7.65
2022-11-04T09:53:49.737Z,10.39
2022-11-04T09:56:25.827Z,10.44
2022-11-04T09:58:52.801Z,10.23
2022-11-04T10:01:19.907Z,10.47
2022-11-04T10:04:12.774Z,10.66
2022-11-04T10:06:53.781Z,9.50
2022-11-04T10:09:32.132Z,10.61
2022-11-04T10:12:18.088Z,10.79
2022-11-04T10:14:51.283Z,10.90
2022-11-04T10:17:49.311Z,11.07
2022-11-04T10:20:32.017Z,11.15
2022-11-04T10:23:16.890Z,11.38
2022-11-04T10:25:53.989Z,10.27
2022-11-04T10:28:25.888Z,8.44
2022-11-04T10:30:53.275Z,10.11
2022-11-04T10:33:34.767Z,10.88
2022-11-04T10:36:06.632Z,11.34
2022-11-04T10:38:47.039Z,10.54
2022-11-04T10:41:20.096Z,11.44
2022-11-04T10:43:48.135Z,10.02
2022-11-04T10:46:38.724Z,11.07
2022-11-04T10:49:08.851Z,11.42
2022-11-04T10:51:35.781Z,10.85
2022-11-04T10:54:03.689Z,8.79
2022-11-04T10:56:45.597Z,11.70
2022-11-04T10:59:24.932Z,11.76
2022-11-04T11:02:10.462Z,11.41
2022-11-04T11:04:39.041Z,11.56
2022-11-04T11:07:09.453Z,11.90
2022-11-04T11:09:42.173Z,12.00
2022-11-04T11:12:48.778Z,12.14
2022-11-04T11:15:30.432Z,12.03
2022-11-04T11:18:22.647Z,11.12
2022-11-04T11:21:03.705Z,12.17
2022-11-04T11:23:42.792Z,12.08
2022-11-04T11:26:14.569Z,11.07
2022-11-04T11:28:47.818Z,11.38
2022-11-04T11:31:23.838Z,12.11
2022-11-04T11:33:59.908Z,8.69
2022-11-04T11:36:31.118Z,11.60
2022-11-04T11:39:06.495Z,12.27
2022-11-04T11:41:53.365Z,12.25
2022-11-04T11:44:37.420Z,12.28
2022-11-04T11:47:19.374Z,12.09
2022-11-04T11:49:46.369Z,9.49
2022-11-04T11:52:46.640Z,12.07
2022-11-04T11:55:23.908Z,11.41
2022-11-04T12:01:32.480Z,12.33
2022-11-04T12:10:00.707Z,12.94
2022-11-04T12:12:39.883Z,13.12
2022-11-04T12:15:41.243Z,12.34
2022-11-04T12:18:32.363Z,13.02
2022-11-04T12:21:06.661Z,10.96
2022-11-04T12:24:04.180Z,12.61
2022-11-04T12:26:37.672Z,10.48
2022-11-04T12:29:31.803Z,12.42
2022-11-04T12:32:19.002Z,12.40
2022-11-04T12:35:04.284Z,12.42
2022-11-04T12:37:50.074Z,12.39
2022-11-04T12:40:17.013Z,12.47
2022-11-04T12:42:51.988Z,12.39
2022-11-04T12:45:39.367Z,12.26
2022-11-04T12:48:19.657Z,10.15
2022-11-04T12:50:49.624Z,12.24
2022-11-04T12:53:47.863Z,12.14
2022-11-04T12:56:18.137Z,11.60
2022-11-04T12:59:09.554Z,12.04
2022-11-04T13:01:44.492Z,11.56
2022-11-04T13:04:17.689Z,10.41
2022-11-04T13:06:57.941Z,11.91
2022-11-04T13:09:37.032Z,11.67
2022-11-04T13:12:11.760Z,11.79
2022-11-04T13:14:51.768Z,11.56
2022-11-04T13:17:24.518Z,11.81
2022-11-04T13:19:54.253Z,10.99
2022-11-04T13:22:26.135Z,10.42
2022-11-04T13:24:59.682Z,11.75
2022-11-04T13:27:33.554Z,8.27
2022-11-04T13:30:46.959Z,11.60
2022-11-04T13:33:52.864Z,11.64
2022-11-04T13:36:40.642Z,10.86
2022-11-04T13:39:16.463Z,10.77
2022-11-04T13:42:01.669Z,11.48
2022-11-04T13:44:41.238Z,9.56
2022-11-04T13:47:21.953Z,9.72
2022-11-04T13:49:52.246Z,11.31
2022-11-04T13:52:19.548Z,10.69
2022-11-04T13:54:56.005Z,11.24
2022-11-04T13:57:54.697Z,11.20
2022-11-04T14:00:27.346Z,10.70
2022-11-04T14:03:16.301Z,11.13
2022-11-04T14:05:43.268Z,11.08
2022-11-04T14:08:14.003Z,10.12
2022-11-04T14:10:45.632Z,10.95
2022-11-04T14:13:27.751Z,11.01
2022-11-04T14:16:06.463Z,9.92
2022-11-04T14:18:36.096Z,8.13
2022-11-04T14:21:13.180Z,10.86
2022-11-04T14:23:42.759Z,8.31
2022-11-04T14:26:12.957Z,10.48
2022-11-04T14:28:44.312Z,9.55
2022-11-04T14:31:17.636Z,9.62
2022-11-04T14:33:53.947Z,10.72
2022-11-04T14:36:21.004Z,10.69
2022-11-04T14:39:12.555Z,10.58
2022-11-04T14:41:53.583Z,10.63
2022-11-04T14:44:31.585Z,10.27
2022-11-04T14:47:31.034Z,10.58
2022-11-04T14:50:01.077Z,10.51
2022-11-04T14:52:32.756Z,10.27
2022-11-04T14:55:08.323Z,10.14
2022-11-04T14:57:40.909Z,9.28
2022-11-04T15:00:30.791Z,10.36
2022-11-04T15:03:11.128Z,10.40
2022-11-04T15:05:52.738Z,10.42
2022-11-04T15:08:43.036Z,10.32
2022-11-04T15:11:39.102Z,10.35
2022-11-04T15:14:20.730Z,9.91
2022-11-04T15:16:51.328Z,9.33
2022-11-04T15:19:31.597Z,10.19
2022-11-04T15:22:01.544Z,10.18
2022-11-04T15:24:30.044Z,9.17
2022-11-04T15:27:02.931Z,7.11
2022-11-04T15:29:29.861Z,9.48
2022-11-04T15:32:04.724Z,10.36
2022-11-04T15:34:33.908Z,10.37
2022-11-04T15:37:05.991Z,5.24
2022-11-04T15:39:43.926Z,10.29
2022-11-04T15:42:40.841Z,10.22
2022-11-04T15:45:23.216Z,10.16
2022-11-04T15:48:10.204Z,10.28
2022-11-04T15:50:38.197Z,10.19
2022-11-04T15:53:10.767Z,7.94
2022-11-04T15:55:38.798Z,8.61
2022-11-04T15:58:06.208Z,7.01
2022-11-04T16:00:34.489Z,8.40
2022-11-04T16:03:01.713Z,8.95
2022-11-04T16:05:38.405Z,7.65
2022-11-04T16:08:23.774Z,10.08
2022-11-04T16:11:07.773Z,8.42
2022-11-04T16:13:34.823Z,8.81
2022-11-04T16:16:09.475Z,10.08
2022-11-04T16:18:52.572Z,8.95
2022-11-04T16:21:31.016Z,10.05
2022-11-04T16:24:02.668Z,9.06
2022-11-04T16:26:40.141Z,8.38
2022-11-04T16:29:10.888Z,9.90
2022-11-04T16:31:38.044Z,10.06
2022-11-04T16:34:12.141Z,7.69
2022-11-04T16:36:39.320Z,9.72
2022-11-04T16:39:09.889Z,10.11
2022-11-04T16:41:39.610Z,4.33
2022-11-04T16:44:19.090Z,7.55
2022-11-04T16:46:46.098Z,9.02
2022-11-04T16:49:18.857Z,8.56
2022-11-04T16:51:48.527Z,10.08
2022-11-04T16:54:15.571Z,5.51
2022-11-04T16:56:42.563Z,5.53
2022-11-04T16:59:12.066Z,8.65
2022-11-04T17:01:40.812Z,10.13
2022-11-04T17:04:08.162Z,10.19
2022-11-04T17:06:35.916Z,10.18
2022-11-04T17:09:03.719Z,10.12
2022-11-04T17:11:30.672Z,9.35
2022-11-04T17:13:57.670Z,7.40
2022-11-04T17:16:24.736Z,9.60
2022-11-04T17:18:51.673Z,7.17
2022-11-04T17:21:20.915Z,10.11
2022-11-04T17:23:48.148Z,9.64
2022-11-04T17:26:15.558Z,8.32
2022-11-04T17:28:42.544Z,9.84
2022-11-04T17:31:18.886Z,6.46
2022-11-04T17:33:45.835Z,8.38
2022-11-04T17:36:19.071Z,8.26
2022-11-04T17:38:47.201Z,9.75
2022-11-04T17:41:32.752Z,9.79
2022-11-04T17:44:02.882Z,9.75
2022-11-04T17:46:41.929Z,10.08
2022-11-04T17:49:14.416Z,10.12
2022-11-04T17:51:44.568Z,6.29
2022-11-04T17:54:12.179Z,9.22
2022-11-04T17:56:40.818Z,4.98
2022-11-04T17:59:09.053Z,8.71
2022-11-04T18:01:37.070Z,6.31
2022-11-04T18:04:04.307Z,5.29
2022-11-04T18:06:33.869Z,9.18
2022-11-04T18:09:01.303Z,7.53
2022-11-04T18:11:48.202Z,5.09
2022-11-04T18:14:18.541Z,9.40
2022-11-04T18:16:47.601Z,8.32
2022-11-04T18:19:15.868Z,8.35
2022-11-04T18:21:42.986Z,8.58
2022-11-04T18:24:10.293Z,7.44
2022-11-04T18:26:37.499Z,8.59
2022-11-04T18:29:05.101Z,10.10
2022-11-04T18:31:34.856Z,8.84
2022-11-04T18:34:03.979Z,9.27
2022-11-04T18:36:34.038Z,9.42
2022-11-04T18:39:01.732Z,6.80
2022-11-04T18:41:28.964Z,9.04
2022-11-04T18:43:56.026Z,7.19
2022-11-04T18:46:23.019Z,8.57
2022-11-04T18:48:53.589Z,9.26
2022-11-04T18:51:22.843Z,8.15
2022-11-04T18:53:50.990Z,10.10
2022-11-04T18:56:21.135Z,10.07
2022-11-04T18:58:48.979Z,8.25
2022-11-04T19:01:24.249Z,10.06
2022-11-04T19:03:51.788Z,10.06
2022-11-04T19:06:22.571Z,10.12
2022-11-04T19:08:50.900Z,10.04
2022-11-04T19:11:20.824Z,7.17
2022-11-04T19:14:02.831Z,10.02
2022-11-04T19:16:34.075Z,10.03
2022-11-04T19:19:04.277Z,8.61
2022-11-04T19:21:31.287Z,8.69
2022-11-04T19:24:02.262Z,6.56
2022-11-04T19:26:33.191Z,9.91
2022-11-04T19:29:01.363Z,9.88
2022-11-04T19:31:30.117Z,9.49
2022-11-04T19:34:04.741Z,9.01
2022-11-04T19:36:34.025Z,9.95
2022-11-04T19:39:01.500Z,7.59
2022-11-04T19:41:47.004Z,9.67
2022-11-04T19:44:16.739Z,7.15
2022-11-04T19:46:44.261Z,9.86
2022-11-04T19:49:12.792Z,8.32
2022-11-04T19:51:40.344Z,9.84
2022-11-04T19:54:07.443Z,9.50
2022-11-04T19:56:36.722Z,8.91
2022-11-04T19:59:07.980Z,9.78
2022-11-04T20:01:35.777Z,9.69
2022-11-04T20:04:04.560Z,9.71
2022-11-04T20:06:33.425Z,6.61
2022-11-04T20:09:05.942Z,9.74
2022-11-04T20:11:34.801Z,9.73
2022-11-04T20:14:07.486Z,8.80
2022-11-04T20:16:39.715Z,9.65
2022-11-04T20:19:07.584Z,9.65
2022-11-04T20:21:37.037Z,9.57
2022-11-04T20:24:07.504Z,9.40
2022-11-04T20:26:37.089Z,7.02
2022-11-04T20:29:06.143Z,9.58
2022-11-04T20:31:36.460Z,9.59
2022-11-04T20:34:08.270Z,7.93
2022-11-04T20:36:38.137Z,9.49
2022-11-04T20:39:17.369Z,9.31
2022-11-04T20:41:45.513Z,9.46
2022-11-04T20:44:13.963Z,9.51
2022-11-04T20:46:42.179Z,8.19
2022-11-04T20:49:09.184Z,8.44
2022-11-04T20:51:38.868Z,6.09
2022-11-04T20:54:07.407Z,9.47
2022-11-04T20:56:37.337Z,9.39
2022-11-04T20:59:06.400Z,7.94
2022-11-04T21:01:39.654Z,9.46
2022-11-04T21:04:11.814Z,9.39
2022-11-04T21:06:39.545Z,8.55
2022-11-04T21:09:10.051Z,9.22
2022-11-04T21:11:39.278Z,9.31
2022-11-04T21:14:08.263Z,8.69
2022-11-04T21:16:36.003Z,8.67
2022-11-04T21:19:03.693Z,8.98
2022-11-04T21:21:30.798Z,6.19
2022-11-04T21:24:02.284Z,9.23
2022-11-04T21:26:32.456Z,9.28
2022-11-04T21:29:01.899Z,6.96
2022-11-04T21:31:31.253Z,9.20
2022-11-04T21:33:58.572Z,8.77
2022-11-04T21:36:26.415Z,8.66
2022-11-04T21:38:53.414Z,8.95
2022-11-04T21:41:24.666Z,8.00
2022-11-04T21:44:03.307Z,9.39
2022-11-04T21:46:34.176Z,9.37
2022-11-04T21:49:01.659Z,9.41
2022-11-04T21:51:31.125Z,9.23
2022-11-04T21:53:59.614Z,9.02
2022-11-04T21:56:29.244Z,8.06
2022-11-04T21:58:56.916Z,8.12
2022-11-04T22:01:26.582Z,6.81
2022-11-04T22:03:59.988Z,9.23
2022-11-04T22:06:33.985Z,9.30
2022-11-04T22:09:03.660Z,6.97
2022-11-04T22:11:33.277Z,9.39
2022-11-04T22:14:02.447Z,8.66
2022-11-04T22:16:32.589Z,7.66
2022-11-04T22:19:02.196Z,7.40
2022-11-04T22:21:30.670Z,3.55
2022-11-04T22:23:58.659Z,8.51
2022-11-04T22:26:31.593Z,9.46
2022-11-04T22:28:59.524Z,9.50
2022-11-04T22:31:35.121Z,8.26
2022-11-04T22:34:02.320Z,5.88
2022-11-04T22:36:30.619Z,9.45
2022-11-04T22:38:58.519Z,9.54
2022-11-04T22:41:30.620Z,6.65
2022-11-04T22:43:58.344Z,8.30
2022-11-04T22:46:30.780Z,9.46
2022-11-04T22:48:59.836Z,9.11
2022-11-04T22:51:27.185Z,5.48
2022-11-04T22:54:00.061Z,8.43
2022-11-04T22:56:30.782Z,8.78
2022-11-04T22:58:58.271Z,8.74
2022-11-04T23:01:26.317Z,6.51
2022-11-04T23:03:53.886Z,9.49
2022-11-04T23:06:21.379Z,7.72
2022-11-04T23:08:48.586Z,9.11
2022-11-04T23:11:40.032Z,9.46
2022-11-04T23:14:25.824Z,7.35
2022-11-04T23:17:11.546Z,7.12
2022-11-04T23:19:39.241Z,9.49
2022-11-04T23:22:25.435Z,9.27
2022-11-04T23:25:10.157Z,7.63
2022-11-04T23:28:05.036Z,9.50
2022-11-04T23:30:39.004Z,9.45
2022-11-04T23:33:10.683Z,9.42
2022-11-04T23:35:59.284Z,9.43
2022-11-04T23:38:27.191Z,9.41
2022-11-04T23:41:18.490Z,6.24
2022-11-04T23:43:45.480Z,7.39
2022-11-04T23:46:31.424Z,8.68
2022-11-04T23:49:07.567Z,7.27
2022-11-04T23:51:53.252Z,9.44
2022-11-04T23:54:39.361Z,9.21
2022-11-04T23:57:31.855Z,7.84
